createdAt,value
2016-07-15T00:00:58.448Z,1014.55
2016-07-15T00:01:58.436Z,1014.55
2016-07-15T00:02:58.422Z,1014.54
2016-07-15T00:03:58.409Z,1014.51
2016-07-15T00:04:58.398Z,1014.51
2016-07-15T00:05:58.385Z,1014.49
2016-07-15T00:06:58.372Z,1014.5
2016-07-15T00:07:58.360Z,1014.51
2016-07-15T00:08:58.349Z,1014.49
2016-07-15T00:09:58.337Z,1014.54
2016-07-15T00:10:58.325Z,1014.51
2016-07-15T00:11:58.312Z,1014.53
2016-07-15T00:12:58.300Z,1014.58
2016-07-15T00:13:58.285Z,1014.58
2016-07-15T00:14:58.273Z,1014.59
2016-07-15T00:15:58.263Z,1014.59
2016-07-15T00:16:58.250Z,1014.56
2016-07-15T00:17:58.237Z,1014.58
2016-07-15T00:18:58.224Z,1014.63
2016-07-15T00:19:58.214Z,1014.59
2016-07-15T00:20:58.200Z,1014.62
2016-07-15T00:21:58.187Z,1014.63
2016-07-15T00:22:58.176Z,1014.58
2016-07-15T00:23:58.164Z,1014.61
2016-07-15T00:24:58.151Z,1014.62
2016-07-15T00:25:58.138Z,1014.6
2016-07-15T00:26:58.124Z,1014.6
2016-07-15T00:27:58.120Z,1014.66
2016-07-15T00:28:58.100Z,1014.68
2016-07-15T00:29:58.087Z,1014.68
2016-07-15T00:30:58.077Z,1014.71
2016-07-15T00:31:58.064Z,1014.67
2016-07-15T00:32:58.051Z,1014.65
2016-07-15T00:33:58.038Z,1014.67
2016-07-15T00:34:58.026Z,1014.7
2016-07-15T00:35:58.013Z,1014.66
2016-07-15T00:36:58.010Z,1014.67
2016-07-15T00:37:57.990Z,1014.71
2016-07-15T00:38:57.978Z,1014.73
2016-07-15T00:39:57.965Z,1014.7
2016-07-15T00:40:57.951Z,1014.71
2016-07-15T00:41:57.938Z,1014.69
2016-07-15T00:42:57.927Z,1014.72
2016-07-15T00:43:57.916Z,1014.72
2016-07-15T00:44:57.902Z,1014.74
2016-07-15T00:45:57.902Z,1014.7
2016-07-15T00:46:57.877Z,1014.7
2016-07-15T00:47:57.877Z,1014.71
2016-07-15T00:48:57.854Z,1014.71
2016-07-15T00:49:57.841Z,1014.73
2016-07-15T00:50:57.829Z,1014.73
2016-07-15T00:51:57.822Z,1014.72
2016-07-15T00:52:57.808Z,1014.75
2016-07-15T00:53:57.790Z,1014.76
2016-07-15T00:54:57.780Z,1014.77
2016-07-15T00:55:57.767Z,1014.77
2016-07-15T00:56:57.753Z,1014.75
2016-07-15T00:57:57.741Z,1014.8
2016-07-15T00:58:57.729Z,1014.75
2016-07-15T00:59:57.719Z,1014.77
2016-07-15T01:00:57.706Z,1014.74
2016-07-15T01:01:57.692Z,1014.74
2016-07-15T01:02:57.680Z,1014.77
2016-07-15T01:03:57.668Z,1014.79
2016-07-15T01:04:57.654Z,1014.79
2016-07-15T01:05:57.642Z,1014.76
2016-07-15T01:06:57.630Z,1014.76
2016-07-15T01:07:57.617Z,1014.75
2016-07-15T01:08:57.604Z,1014.76
2016-07-15T01:09:57.594Z,1014.75
2016-07-15T01:10:57.580Z,1014.67
2016-07-15T01:11:57.569Z,1014.7
2016-07-15T01:12:57.557Z,1014.7
2016-07-15T01:13:57.547Z,1014.7
2016-07-15T01:14:57.531Z,1014.72
2016-07-15T01:15:57.516Z,1014.72
2016-07-15T01:16:57.506Z,1014.71
2016-07-15T01:17:57.495Z,1014.71
2016-07-15T01:18:57.480Z,1014.7
2016-07-15T01:19:57.469Z,1014.76
2016-07-15T01:20:57.457Z,1014.67
2016-07-15T01:21:57.448Z,1014.67
2016-07-15T01:22:57.431Z,1014.68
2016-07-15T01:23:57.421Z,1014.67
2016-07-15T01:24:57.418Z,1014.66
2016-07-15T01:25:57.401Z,1014.65
2016-07-15T01:26:57.389Z,1014.64
2016-07-15T01:27:57.370Z,1014.65
2016-07-15T01:28:57.358Z,1014.63
2016-07-15T01:29:57.349Z,1014.66
2016-07-15T01:30:57.333Z,1014.69
2016-07-15T01:31:57.329Z,1014.69
2016-07-15T01:32:57.310Z,1014.7
2016-07-15T01:33:57.309Z,1014.74
2016-07-15T01:34:57.283Z,1014.71
2016-07-15T01:35:57.272Z,1014.74
2016-07-15T01:36:57.260Z,1014.74
2016-07-15T01:37:57.245Z,1014.73
2016-07-15T01:38:57.234Z,1014.69
2016-07-15T01:39:57.221Z,1014.72
2016-07-15T01:40:57.209Z,1014.7
2016-07-15T01:41:57.197Z,1014.62
2016-07-15T01:42:57.186Z,1014.66
2016-07-15T01:43:57.179Z,1014.64
2016-07-15T01:44:57.160Z,1014.69
2016-07-15T01:45:57.150Z,1014.66
2016-07-15T01:46:57.136Z,1014.69
2016-07-15T01:47:57.125Z,1014.7
2016-07-15T01:48:57.110Z,1014.7
2016-07-15T01:49:57.098Z,1014.76
2016-07-15T01:50:57.087Z,1014.77
2016-07-15T01:51:57.074Z,1014.78
2016-07-15T01:52:57.064Z,1014.78
2016-07-15T01:53:57.051Z,1014.79
2016-07-15T01:54:57.037Z,1014.8
2016-07-15T01:55:57.025Z,1014.77
2016-07-15T01:56:57.012Z,1014.77
2016-07-15T01:57:57.008Z,1014.77
2016-07-15T01:58:56.990Z,1014.76
2016-07-15T01:59:56.976Z,1014.77
2016-07-15T02:00:56.966Z,1014.75
2016-07-15T02:01:56.952Z,1014.74
2016-07-15T02:02:56.940Z,1014.72
2016-07-15T02:03:56.936Z,1014.75
2016-07-15T02:04:56.915Z,1014.73
2016-07-15T02:05:56.904Z,1014.68
2016-07-15T02:06:56.890Z,1014.67
2016-07-15T02:07:56.879Z,1014.67
2016-07-15T02:08:56.867Z,1014.68
2016-07-15T02:09:56.853Z,1014.71
2016-07-15T02:10:56.842Z,1014.69
2016-07-15T02:11:56.829Z,1014.69
2016-07-15T02:12:56.817Z,1014.71
2016-07-15T02:13:56.804Z,1014.7
2016-07-15T02:14:56.791Z,1014.69
2016-07-15T02:15:56.779Z,1014.72
2016-07-15T02:16:56.768Z,1014.78
2016-07-15T02:17:56.754Z,1014.72
2016-07-15T02:18:56.742Z,1014.73
2016-07-15T02:19:56.730Z,1014.76
2016-07-15T02:20:56.717Z,1014.77
2016-07-15T02:21:56.707Z,1014.76
2016-07-15T02:22:56.694Z,1014.75
2016-07-15T02:23:56.681Z,1014.7
2016-07-15T02:24:56.667Z,1014.77
2016-07-15T02:25:56.662Z,1014.76
2016-07-15T02:26:56.644Z,1014.77
2016-07-15T02:27:56.633Z,1014.81
2016-07-15T02:28:56.619Z,1014.79
2016-07-15T02:29:56.809Z,1014.79
2016-07-15T02:30:56.595Z,1014.8
2016-07-15T02:31:56.581Z,1014.77
2016-07-15T02:32:56.570Z,1014.77
2016-07-15T02:33:56.560Z,1014.75
2016-07-15T02:34:56.546Z,1014.74
2016-07-15T02:35:56.534Z,1014.77
2016-07-15T02:36:56.519Z,1014.76
2016-07-15T02:37:56.508Z,1014.76
2016-07-15T02:38:56.495Z,1014.79
2016-07-15T02:39:56.483Z,1014.78
2016-07-15T02:40:56.473Z,1014.76
2016-07-15T02:41:56.458Z,1014.78
2016-07-15T02:42:56.446Z,1014.82
2016-07-15T02:43:56.432Z,1014.76
2016-07-15T02:44:56.422Z,1014.79
2016-07-15T02:45:56.408Z,1014.81
2016-07-15T02:46:56.396Z,1014.81
2016-07-15T02:47:56.384Z,1014.79
2016-07-15T02:48:56.375Z,1014.78
2016-07-15T02:49:56.364Z,1014.77
2016-07-15T02:50:56.347Z,1014.77
2016-07-15T02:51:56.338Z,1014.78
2016-07-15T02:52:56.324Z,1014.74
2016-07-15T02:53:56.312Z,1014.76
2016-07-15T02:54:56.300Z,1014.78
2016-07-15T02:55:56.289Z,1014.78
2016-07-15T02:56:56.275Z,1014.75
2016-07-15T02:57:56.262Z,1014.78
2016-07-15T02:58:56.250Z,1014.77
2016-07-15T02:59:56.237Z,1014.78
2016-07-15T03:00:56.227Z,1014.74
2016-07-15T03:01:56.212Z,1014.79
2016-07-15T03:02:56.202Z,1014.81
2016-07-15T03:03:56.187Z,1014.8
2016-07-15T03:04:56.176Z,1014.82
2016-07-15T03:05:56.166Z,1014.82
2016-07-15T03:06:56.159Z,1014.86
2016-07-15T03:07:56.142Z,1014.83
2016-07-15T03:08:56.126Z,1014.81
2016-07-15T03:09:56.113Z,1014.79
2016-07-15T03:10:56.103Z,1014.85
2016-07-15T03:11:56.090Z,1014.82
2016-07-15T03:12:56.078Z,1014.83
2016-07-15T03:13:56.066Z,1014.88
2016-07-15T03:14:56.056Z,1014.88
2016-07-15T03:15:56.041Z,1014.83
2016-07-15T03:16:56.030Z,1014.86
2016-07-15T03:17:56.016Z,1014.8
2016-07-15T03:18:56.005Z,1014.83
2016-07-15T03:19:55.991Z,1014.84
2016-07-15T03:20:55.982Z,1014.79
2016-07-15T03:21:55.967Z,1014.8
2016-07-15T03:22:55.958Z,1014.81
2016-07-15T03:23:55.944Z,1014.79
2016-07-15T03:24:55.930Z,1014.84
2016-07-15T03:25:55.920Z,1014.83
2016-07-15T03:26:55.906Z,1014.81
2016-07-15T03:27:55.895Z,1014.9
2016-07-15T03:28:55.881Z,1014.85
2016-07-15T03:29:55.868Z,1014.87
2016-07-15T03:30:55.858Z,1014.86
2016-07-15T03:31:55.844Z,1014.87
2016-07-15T03:32:55.832Z,1014.9
2016-07-15T03:33:55.821Z,1014.86
2016-07-15T03:34:55.808Z,1014.93
2016-07-15T03:35:55.798Z,1014.94
2016-07-15T03:36:55.783Z,1014.96
2016-07-15T03:37:55.773Z,1014.91
2016-07-15T03:38:55.758Z,1014.94
2016-07-15T03:39:55.745Z,1014.93
2016-07-15T03:40:55.735Z,1014.9
2016-07-15T03:41:55.721Z,1014.92
2016-07-15T03:42:55.710Z,1014.94
2016-07-15T03:43:55.698Z,1014.98
2016-07-15T03:44:55.685Z,1015.04
2016-07-15T03:45:55.674Z,1015.07
2016-07-15T03:46:55.661Z,1015.04
2016-07-15T03:47:55.647Z,1015.01
2016-07-15T03:48:55.636Z,1015.01
2016-07-15T03:49:55.628Z,1015.02
2016-07-15T03:50:55.612Z,1015.02
2016-07-15T03:51:55.599Z,1015.05
2016-07-15T03:52:55.587Z,1015.07
2016-07-15T03:53:55.574Z,1015.09
2016-07-15T03:54:55.564Z,1015.04
2016-07-15T03:55:55.552Z,1015.09
2016-07-15T03:56:55.542Z,1015.08
2016-07-15T03:57:55.529Z,1015.1
2016-07-15T03:58:55.516Z,1015.05
2016-07-15T03:59:55.502Z,1015.11
2016-07-15T04:00:55.490Z,1015.07
2016-07-15T04:01:55.482Z,1015.11
2016-07-15T04:02:55.467Z,1015.13
2016-07-15T04:03:55.452Z,1015.16
2016-07-15T04:04:55.443Z,1015.12
2016-07-15T04:05:55.431Z,1015.13
2016-07-15T04:06:55.419Z,1015.13
2016-07-15T04:07:55.407Z,1015.15
2016-07-15T04:08:55.394Z,1015.15
2016-07-15T04:09:55.384Z,1015.16
2016-07-15T04:10:55.369Z,1015.14
2016-07-15T04:11:55.358Z,1015.15
2016-07-15T04:12:55.344Z,1015.13
2016-07-15T04:13:55.332Z,1015.15
2016-07-15T04:14:55.319Z,1015.12
2016-07-15T04:15:55.310Z,1015.13
2016-07-15T04:16:55.294Z,1015.21
2016-07-15T04:17:55.282Z,1015.2
2016-07-15T04:18:55.272Z,1015.17
2016-07-15T04:19:55.258Z,1015.23
2016-07-15T04:20:55.246Z,1015.25
2016-07-15T04:21:55.234Z,1015.26
2016-07-15T04:22:55.222Z,1015.25
2016-07-15T04:23:55.209Z,1015.25
2016-07-15T04:24:55.199Z,1015.26
2016-07-15T04:25:55.185Z,1015.24
2016-07-15T04:26:55.174Z,1015.22
2016-07-15T04:27:55.163Z,1015.21
2016-07-15T04:28:55.148Z,1015.23
2016-07-15T04:29:55.339Z,1015.25
2016-07-15T04:30:55.126Z,1015.26
2016-07-15T04:31:55.114Z,1015.22
2016-07-15T04:32:55.102Z,1015.26
2016-07-15T04:33:55.090Z,1015.24
2016-07-15T04:34:55.077Z,1015.21
2016-07-15T04:35:55.066Z,1015.24
2016-07-15T04:36:55.063Z,1015.25
2016-07-15T04:37:55.042Z,1015.28
2016-07-15T04:38:55.030Z,1015.22
2016-07-15T04:39:55.015Z,1015.24
2016-07-15T04:40:55.005Z,1015.27
2016-07-15T04:41:55.004Z,1015.26
2016-07-15T04:42:54.982Z,1015.27
2016-07-15T04:43:54.970Z,1015.3
2016-07-15T04:44:54.960Z,1015.32
2016-07-15T04:45:54.944Z,1015.3
2016-07-15T04:46:54.936Z,1015.32
2016-07-15T04:47:54.920Z,1015.34
2016-07-15T04:48:54.909Z,1015.35
2016-07-15T04:49:54.899Z,1015.4
2016-07-15T04:50:54.882Z,1015.44
2016-07-15T04:51:54.870Z,1015.42
2016-07-15T04:52:54.858Z,1015.45
2016-07-15T04:53:54.846Z,1015.46
2016-07-15T04:54:54.834Z,1015.5
2016-07-15T04:55:54.823Z,1015.49
2016-07-15T04:56:54.810Z,1015.5
2016-07-15T04:57:54.799Z,1015.54
2016-07-15T04:58:54.784Z,1015.58
2016-07-15T04:59:54.775Z,1015.54
2016-07-15T05:00:54.764Z,1015.53
2016-07-15T05:01:54.751Z,1015.57
2016-07-15T05:02:54.737Z,1015.54
2016-07-15T05:03:54.725Z,1015.56
2016-07-15T05:04:54.715Z,1015.55
2016-07-15T05:05:54.699Z,1015.54
2016-07-15T05:06:54.690Z,1015.59
2016-07-15T05:07:54.677Z,1015.58
2016-07-15T05:08:54.665Z,1015.6
2016-07-15T05:09:54.653Z,1015.57
2016-07-15T05:10:54.641Z,1015.56
2016-07-15T05:11:54.629Z,1015.59
2016-07-15T05:12:54.618Z,1015.63
2016-07-15T05:13:54.605Z,1015.63
2016-07-15T05:14:54.594Z,1015.62
2016-07-15T05:15:54.582Z,1015.66
2016-07-15T05:16:54.570Z,1015.68
2016-07-15T05:17:54.559Z,1015.66
2016-07-15T05:18:54.548Z,1015.66
2016-07-15T05:19:54.535Z,1015.65
2016-07-15T05:20:54.521Z,1015.64
2016-07-15T05:21:54.508Z,1015.65
2016-07-15T05:22:54.499Z,1015.6
2016-07-15T05:23:54.489Z,1015.65
2016-07-15T05:24:54.476Z,1015.63
2016-07-15T05:25:54.464Z,1015.67
2016-07-15T05:26:54.451Z,1015.69
2016-07-15T05:27:54.449Z,1015.71
2016-07-15T05:28:54.430Z,1015.69
2016-07-15T05:29:54.416Z,1015.69
2016-07-15T05:30:54.404Z,1015.73
2016-07-15T05:31:54.393Z,1015.7
2016-07-15T05:32:54.382Z,1015.74
2016-07-15T05:33:54.370Z,1015.75
2016-07-15T05:34:54.356Z,1015.77
2016-07-15T05:35:54.345Z,1015.77
2016-07-15T05:36:54.334Z,1015.78
2016-07-15T05:37:54.322Z,1015.8
2016-07-15T05:38:54.312Z,1015.79
2016-07-15T05:39:54.297Z,1015.84
2016-07-15T05:40:54.287Z,1015.84
2016-07-15T05:41:54.276Z,1015.91
2016-07-15T05:42:54.263Z,1016
2016-07-15T05:43:54.252Z,1015.96
2016-07-15T05:44:54.240Z,1015.94
2016-07-15T05:45:54.229Z,1015.97
2016-07-15T05:46:54.216Z,1016.04
2016-07-15T05:47:54.206Z,1016.01
2016-07-15T05:48:54.193Z,1016.01
2016-07-15T05:49:54.180Z,1016.02
2016-07-15T05:50:54.170Z,1016.03
2016-07-15T05:51:54.160Z,1016.05
2016-07-15T05:52:54.149Z,1016.03
2016-07-15T05:53:54.137Z,1016.04
2016-07-15T05:54:54.123Z,1016.01
2016-07-15T05:55:54.112Z,1016.05
2016-07-15T05:56:54.100Z,1016.04
2016-07-15T05:57:54.088Z,1016.04
2016-07-15T05:58:54.082Z,1016.03
2016-07-15T05:59:54.067Z,1016.03
2016-07-15T06:00:54.056Z,1016.02
2016-07-15T06:01:54.044Z,1016.05
2016-07-15T06:02:54.033Z,1016.05
2016-07-15T06:03:54.019Z,1016.06
2016-07-15T06:04:54.011Z,1016.02
2016-07-15T06:05:53.998Z,1016.06
2016-07-15T06:06:53.988Z,1016.08
2016-07-15T06:07:53.976Z,1016.08
2016-07-15T06:08:53.964Z,1016.12
2016-07-15T06:09:53.952Z,1016.08
2016-07-15T06:10:53.942Z,1016.06
2016-07-15T06:11:53.929Z,1016.1
2016-07-15T06:12:53.919Z,1016.08
2016-07-15T06:13:53.908Z,1016.1
2016-07-15T06:14:53.896Z,1016.09
2016-07-15T06:15:53.887Z,1016.1
2016-07-15T06:16:53.873Z,1016.13
2016-07-15T06:17:53.863Z,1016.1
2016-07-15T06:18:53.851Z,1016.14
2016-07-15T06:19:53.838Z,1016.15
2016-07-15T06:20:53.835Z,1016.15
2016-07-15T06:21:53.819Z,1016.17
2016-07-15T06:22:53.806Z,1016.15
2016-07-15T06:23:53.795Z,1016.14
2016-07-15T06:24:53.784Z,1016.23
2016-07-15T06:25:53.772Z,1016.19
2016-07-15T06:26:53.764Z,1016.16
2016-07-15T06:27:53.750Z,1016.16
2016-07-15T06:28:53.789Z,1016.18
2016-07-15T06:29:53.929Z,1016.16
2016-07-15T06:30:53.717Z,1016.19
2016-07-15T06:31:53.706Z,1016.25
2016-07-15T06:32:53.697Z,1016.23
2016-07-15T06:33:53.685Z,1016.21
2016-07-15T06:34:53.673Z,1016.2
2016-07-15T06:35:53.661Z,1016.22
2016-07-15T06:36:53.673Z,1016.23
2016-07-15T06:37:53.642Z,1016.27
2016-07-15T06:38:53.631Z,1016.34
2016-07-15T06:39:53.620Z,1016.26
2016-07-15T06:40:53.604Z,1016.27
2016-07-15T06:41:53.596Z,1016.29
2016-07-15T06:42:53.584Z,1016.31
2016-07-15T06:43:53.573Z,1016.29
2016-07-15T06:44:53.560Z,1016.3
2016-07-15T06:45:53.554Z,1016.37
2016-07-15T06:46:53.542Z,1016.32
2016-07-15T06:47:53.530Z,1016.35
2016-07-15T06:48:53.519Z,1016.4
2016-07-15T06:49:53.507Z,1016.33
2016-07-15T06:50:53.497Z,1016.35
2016-07-15T06:51:53.487Z,1016.34
2016-07-15T06:52:53.475Z,1016.38
2016-07-15T06:53:53.478Z,1016.34
2016-07-15T06:54:53.457Z,1016.4
2016-07-15T06:55:53.444Z,1016.39
2016-07-15T06:56:53.433Z,1016.34
2016-07-15T06:57:53.423Z,1016.35
2016-07-15T06:58:53.411Z,1016.36
2016-07-15T06:59:53.401Z,1016.38
2016-07-15T07:00:53.389Z,1016.39
2016-07-15T07:01:53.381Z,1016.35
2016-07-15T07:02:53.371Z,1016.33
2016-07-15T07:03:53.360Z,1016.39
2016-07-15T07:04:53.350Z,1016.39
2016-07-15T07:05:53.337Z,1016.36
2016-07-15T07:06:53.330Z,1016.36
2016-07-15T07:07:53.319Z,1016.35
2016-07-15T07:08:53.308Z,1016.37
2016-07-15T07:09:53.300Z,1016.39
2016-07-15T07:10:53.289Z,1016.34
2016-07-15T07:11:53.278Z,1016.33
2016-07-15T07:12:53.268Z,1016.39
2016-07-15T07:13:53.258Z,1016.37
2016-07-15T07:14:53.249Z,1016.31
2016-07-15T07:15:53.239Z,1016.31
2016-07-15T07:16:53.227Z,1016.34
2016-07-15T07:17:53.218Z,1016.36
2016-07-15T07:18:53.211Z,1016.31
2016-07-15T07:19:53.201Z,1016.38
2016-07-15T07:20:53.190Z,1016.4
2016-07-15T07:21:53.179Z,1016.38
2016-07-15T07:22:53.171Z,1016.39
2016-07-15T07:23:53.161Z,1016.41
2016-07-15T07:24:53.151Z,1016.39
2016-07-15T07:25:53.147Z,1016.48
2016-07-15T07:26:53.131Z,1016.37
2016-07-15T07:27:53.121Z,1016.38
2016-07-15T07:28:53.110Z,1016.4
2016-07-15T07:29:53.101Z,1016.43
2016-07-15T07:30:53.093Z,1016.4
2016-07-15T07:31:53.082Z,1016.39
2016-07-15T07:32:53.073Z,1016.43
2016-07-15T07:33:53.064Z,1016.4
2016-07-15T07:34:53.056Z,1016.45
2016-07-15T07:35:53.044Z,1016.53
2016-07-15T07:36:53.034Z,1016.48
2016-07-15T07:37:53.026Z,1016.51
2016-07-15T07:38:53.016Z,1016.5
2016-07-15T07:39:53.010Z,1016.42
2016-07-15T07:40:52.997Z,1016.48
2016-07-15T07:41:52.990Z,1016.49
2016-07-15T07:42:52.982Z,1016.5
2016-07-15T07:43:52.970Z,1016.51
2016-07-15T07:44:52.963Z,1016.47
2016-07-15T07:45:52.953Z,1016.55
2016-07-15T07:46:52.944Z,1016.53
2016-07-15T07:47:52.936Z,1016.6
2016-07-15T07:48:52.926Z,1016.64
2016-07-15T07:49:52.916Z,1016.64
2016-07-15T07:50:52.907Z,1016.61
2016-07-15T07:51:52.898Z,1016.67
2016-07-15T07:52:52.890Z,1016.68
2016-07-15T07:53:52.881Z,1016.67
2016-07-15T07:54:52.873Z,1016.74
2016-07-15T07:55:52.865Z,1016.75
2016-07-15T07:56:52.857Z,1016.74
2016-07-15T07:57:52.848Z,1016.78
2016-07-15T07:58:52.840Z,1016.8
2016-07-15T07:59:52.834Z,1016.8
2016-07-15T08:00:52.826Z,1016.81
2016-07-15T08:01:52.818Z,1016.84
2016-07-15T08:02:52.814Z,1016.84
2016-07-15T08:03:52.812Z,1016.84
2016-07-15T08:04:52.800Z,1016.78
2016-07-15T08:05:52.797Z,1016.75
2016-07-15T08:06:52.791Z,1016.74
2016-07-15T08:07:52.785Z,1016.76
2016-07-15T08:08:52.780Z,1016.82
2016-07-15T08:09:52.771Z,1016.79
2016-07-15T08:10:52.771Z,1016.76
2016-07-15T08:11:52.761Z,1016.76
2016-07-15T08:12:52.756Z,1016.8
2016-07-15T08:13:52.751Z,1016.74
2016-07-15T08:14:52.746Z,1016.76
2016-07-15T08:15:52.739Z,1016.72
2016-07-15T08:16:52.733Z,1016.73
2016-07-15T08:17:52.729Z,1016.77
2016-07-15T08:18:52.722Z,1016.76
2016-07-15T08:19:52.713Z,1016.76
2016-07-15T08:20:52.709Z,1016.79
2016-07-15T08:21:52.701Z,1016.79
2016-07-15T08:22:52.695Z,1016.86
2016-07-15T08:23:52.689Z,1016.81
2016-07-15T08:24:52.681Z,1016.87
2016-07-15T08:25:52.676Z,1016.85
2016-07-15T08:26:52.666Z,1016.88
2016-07-15T08:27:52.664Z,1016.91
2016-07-15T08:28:52.655Z,1016.94
2016-07-15T08:29:52.851Z,1016.95
2016-07-15T08:30:52.643Z,1016.92
2016-07-15T08:31:52.637Z,1016.88
2016-07-15T08:32:52.635Z,1016.88
2016-07-15T08:33:52.627Z,1016.92
2016-07-15T08:34:52.623Z,1016.98
2016-07-15T08:35:52.616Z,1016.93
2016-07-15T08:36:52.613Z,1016.98
2016-07-15T08:37:52.608Z,1016.97
2016-07-15T08:38:52.606Z,1017.03
2016-07-15T08:39:52.601Z,1016.92
2016-07-15T08:40:52.599Z,1016.94
2016-07-15T08:41:52.595Z,1016.95
2016-07-15T08:42:52.593Z,1016.98
2016-07-15T08:43:52.587Z,1016.98
2016-07-15T08:44:52.584Z,1016.92
2016-07-15T08:45:52.580Z,1017.01
2016-07-15T08:46:52.575Z,1017.02
2016-07-15T08:47:52.573Z,1017.01
2016-07-15T08:48:52.565Z,1016.96
2016-07-15T08:49:52.563Z,1017
2016-07-15T08:50:52.559Z,1017.01
2016-07-15T08:51:52.554Z,1016.94
2016-07-15T08:52:52.552Z,1016.93
2016-07-15T08:53:52.545Z,1017
2016-07-15T08:54:52.542Z,1017
2016-07-15T08:55:52.535Z,1016.98
2016-07-15T08:56:52.529Z,1017.01
2016-07-15T08:57:52.527Z,1017.06
2016-07-15T08:58:52.523Z,1017.03
2016-07-15T08:59:52.516Z,1017.04
2016-07-15T09:00:52.511Z,1017.05
2016-07-15T09:01:52.504Z,1017.03
2016-07-15T09:02:52.498Z,1017.06
2016-07-15T09:03:52.493Z,1017.02
2016-07-15T09:04:52.487Z,1017.06
2016-07-15T09:05:52.486Z,1017.05
2016-07-15T09:06:52.473Z,1017.07
2016-07-15T09:07:52.467Z,1017.01
2016-07-15T09:08:52.460Z,1017.04
2016-07-15T09:09:52.455Z,1017.06
2016-07-15T09:10:52.448Z,1017.25
2016-07-15T09:11:52.439Z,1017.39
2016-07-15T09:12:52.435Z,1017.37
2016-07-15T09:13:52.427Z,1017.35
2016-07-15T09:14:52.421Z,1017.37
2016-07-15T09:15:52.415Z,1017.45
2016-07-15T09:16:52.412Z,1017.41
2016-07-15T09:17:52.403Z,1017.48
2016-07-15T09:18:52.398Z,1017.16
2016-07-15T09:19:52.393Z,1017.18
2016-07-15T09:20:52.387Z,1017.03
2016-07-15T09:21:52.383Z,1016.97
2016-07-15T09:22:52.378Z,1017.18
2016-07-15T09:23:52.374Z,1017.02
2016-07-15T09:24:52.367Z,1017.08
2016-07-15T09:25:52.363Z,1017.1
2016-07-15T09:26:52.358Z,1017.08
2016-07-15T09:27:52.353Z,1017.09
2016-07-15T09:28:52.344Z,1017.09
2016-07-15T09:29:52.340Z,1017.21
2016-07-15T09:30:52.334Z,1017.2
2016-07-15T09:31:52.328Z,1017.12
2016-07-15T09:32:52.320Z,1017.14
2016-07-15T09:33:52.318Z,1017.1
2016-07-15T09:34:52.311Z,1017.12
2016-07-15T09:35:52.305Z,1017.19
2016-07-15T09:36:52.298Z,1017.13
2016-07-15T09:37:52.293Z,1017.09
2016-07-15T09:38:52.287Z,1017.14
2016-07-15T09:39:52.279Z,1017.12
2016-07-15T09:40:52.275Z,1017.18
2016-07-15T09:41:52.265Z,1017.15
2016-07-15T09:42:52.259Z,1017.25
2016-07-15T09:43:52.253Z,1017.54
2016-07-15T09:44:52.247Z,1017.38
2016-07-15T09:45:52.239Z,1017.18
2016-07-15T09:46:52.244Z,1017.53
2016-07-15T09:47:52.228Z,1017.43
2016-07-15T09:48:52.225Z,1017.26
2016-07-15T09:49:52.217Z,1017.24
2016-07-15T09:50:52.214Z,1016.97
2016-07-15T09:51:52.207Z,1017.31
2016-07-15T09:52:52.201Z,1017.02
2016-07-15T09:53:52.197Z,1017.13
2016-07-15T09:54:52.192Z,1017.01
2016-07-15T09:55:52.188Z,1016.98
2016-07-15T09:56:52.184Z,1016.93
2016-07-15T09:57:52.178Z,1016.94
2016-07-15T09:58:52.172Z,1016.94
2016-07-15T09:59:52.169Z,1016.9
2016-07-15T10:00:52.168Z,1016.93
2016-07-15T10:01:52.160Z,1017.05
2016-07-15T10:02:52.156Z,1017.1
2016-07-15T10:03:52.150Z,1017.09
2016-07-15T10:04:52.144Z,1016.98
2016-07-15T10:05:52.186Z,1017.02
2016-07-15T10:06:52.131Z,1017.02
2016-07-15T10:07:52.127Z,1017.16
2016-07-15T10:08:52.122Z,1017
2016-07-15T10:09:52.114Z,1017.04
2016-07-15T10:10:52.108Z,1016.95
2016-07-15T10:11:52.103Z,1016.99
2016-07-15T10:12:52.098Z,1016.79
2016-07-15T10:13:52.092Z,1016.86
2016-07-15T10:14:52.087Z,1016.82
2016-07-15T10:15:52.081Z,1016.99
2016-07-15T10:16:52.076Z,1016.99
2016-07-15T10:17:52.069Z,1017.01
2016-07-15T10:18:52.068Z,1017.03
2016-07-15T10:19:52.062Z,1017.07
2016-07-15T10:20:52.057Z,1016.97
2016-07-15T10:21:52.052Z,1016.99
2016-07-15T10:22:52.047Z,1017.11
2016-07-15T10:23:52.044Z,1017.04
2016-07-15T10:24:52.039Z,1017.07
2016-07-15T10:25:52.033Z,1017
2016-07-15T10:26:52.032Z,1016.98
2016-07-15T10:27:52.024Z,1017
2016-07-15T10:28:52.020Z,1016.99
2016-07-15T10:29:52.217Z,1016.99
2016-07-15T10:30:52.010Z,1016.94
2016-07-15T10:31:52.006Z,1017.07
2016-07-15T10:32:52.000Z,1017.08
2016-07-15T10:33:51.995Z,1017.07
2016-07-15T10:34:51.993Z,1017.12
2016-07-15T10:35:51.980Z,1017.13
2016-07-15T10:36:51.977Z,1017.1
2016-07-15T10:37:51.968Z,1017.07
2016-07-15T10:38:51.964Z,1017.04
2016-07-15T10:39:51.958Z,1017.12
2016-07-15T10:40:51.949Z,1017.1
2016-07-15T10:41:51.943Z,1017.13
2016-07-15T10:42:51.988Z,1017.15
2016-07-15T10:43:51.932Z,1017.07
2016-07-15T10:44:51.924Z,1017.04
2016-07-15T10:45:51.919Z,1017.05
2016-07-15T10:46:51.914Z,1017.02
2016-07-15T10:47:51.909Z,1017.07
2016-07-15T10:48:51.902Z,1017.08
2016-07-15T10:49:51.897Z,1017.07
2016-07-15T10:50:51.891Z,1017.04
2016-07-15T10:51:51.883Z,1017.07
2016-07-15T10:52:51.878Z,1017.05
2016-07-15T10:53:51.871Z,1017.05
2016-07-15T10:54:51.866Z,1017.06
2016-07-15T10:55:51.859Z,1017.02
2016-07-15T10:56:51.852Z,1017.07
2016-07-15T10:57:51.847Z,1017.16
2016-07-15T10:58:51.844Z,1017.17
2016-07-15T10:59:51.835Z,1017.08
2016-07-15T11:00:51.831Z,1017.03
2016-07-15T11:01:51.825Z,1017.02
2016-07-15T11:02:51.820Z,1017.06
2016-07-15T11:03:51.811Z,1017.03
2016-07-15T11:04:51.809Z,1017
2016-07-15T11:05:51.803Z,1017.08
2016-07-15T11:06:51.799Z,1017.14
2016-07-15T11:07:51.792Z,1017.02
2016-07-15T11:08:51.784Z,1017.05
2016-07-15T11:09:51.783Z,1017.07
2016-07-15T11:10:51.775Z,1017.09
2016-07-15T11:11:51.770Z,1017.2
2016-07-15T11:12:51.766Z,1017.16
2016-07-15T11:13:51.764Z,1017.08
2016-07-15T11:14:51.758Z,1017.2
2016-07-15T11:15:51.755Z,1017.12
2016-07-15T11:16:51.751Z,1017.13
2016-07-15T11:17:51.750Z,1017.08
2016-07-15T11:18:51.750Z,1017.12
2016-07-15T11:19:51.745Z,1017.16
2016-07-15T11:20:51.745Z,1017.14
2016-07-15T11:21:51.743Z,1017.06
2016-07-15T11:22:51.742Z,1017.08
2016-07-15T11:23:51.740Z,1017.07
2016-07-15T11:24:51.738Z,1017.14
2016-07-15T11:25:51.737Z,1017.13
2016-07-15T11:26:51.735Z,1017.1
2016-07-15T11:27:51.735Z,1017.08
2016-07-15T11:28:51.737Z,1017.02
2016-07-15T11:29:51.734Z,1017.07
2016-07-15T11:30:51.732Z,1017.03
2016-07-15T11:31:51.733Z,1017.05
2016-07-15T11:32:51.732Z,1017.09
2016-07-15T11:33:51.730Z,1017.09
2016-07-15T11:34:51.734Z,1017.17
2016-07-15T11:35:51.731Z,1017.08
2016-07-15T11:36:51.729Z,1017.09
2016-07-15T11:37:51.779Z,1017.07
2016-07-15T11:38:51.730Z,1017.15
2016-07-15T11:39:51.731Z,1017.12
2016-07-15T11:40:51.728Z,1017.13
2016-07-15T11:41:51.726Z,1017.1
2016-07-15T11:42:51.727Z,1017.08
2016-07-15T11:43:51.726Z,1017.16
2016-07-15T11:44:51.725Z,1017.11
2016-07-15T11:45:51.726Z,1017.2
2016-07-15T11:46:51.726Z,1017.1
2016-07-15T11:47:51.723Z,1017.11
2016-07-15T11:48:51.724Z,1017.15
2016-07-15T11:49:51.723Z,1017.13
2016-07-15T11:50:51.722Z,1017.11
2016-07-15T11:51:51.723Z,1017.19
2016-07-15T11:52:51.722Z,1017.11
2016-07-15T11:53:51.769Z,1017.07
2016-07-15T11:54:51.720Z,1017.25
2016-07-15T11:55:51.719Z,1017.28
2016-07-15T11:56:51.719Z,1017.22
2016-07-15T11:57:51.720Z,1017.18
2016-07-15T11:58:51.721Z,1017.17
2016-07-15T11:59:51.719Z,1017.18
2016-07-15T12:00:51.722Z,1017.21
2016-07-15T12:01:51.722Z,1017.18
2016-07-15T12:02:51.728Z,1017.22
2016-07-15T12:03:51.724Z,1017.28
2016-07-15T12:04:51.725Z,1017.14
2016-07-15T12:05:51.725Z,1017.21
2016-07-15T12:06:51.727Z,1017.18
2016-07-15T12:07:51.728Z,1017.17
2016-07-15T12:08:51.729Z,1017.19